createdAt,value
2022-11-24T00:00:37.320Z,26.45484949832776
2022-11-24T00:07:06.021Z,25.498327759197323
2022-11-24T00:13:38.080Z,27.42809364548495
2022-11-24T00:22:16.638Z,49.63210702341137
2022-11-24T00:28:43.722Z,40.17056856187291
2022-11-24T00:38:08.072Z,28.645484949832777
2022-11-24T00:44:35.582Z,31.070234113712374
2022-11-24T00:51:03.267Z,30.88294314381271
2022-11-24T01:02:08.548Z,28.842809364548494
2022-11-24T01:08:38.076Z,32.36789297658863
2022-11-24T01:15:15.893Z,32.10702341137124
2022-11-24T01:21:43.586Z,31.99665551839465
2022-11-24T01:33:18.988Z,30.130434782608695
2022-11-24T01:39:46.306Z,37.50167224080268
2022-11-24T01:46:14.765Z,43.852842809364546
2022-11-24T01:52:42.523Z,41.441471571906355
2022-11-24T01:59:10.247Z,39.90969899665552
2022-11-24T02:05:38.035Z,39.14046822742475
2022-11-24T02:14:13.392Z,48.618729096989966
2022-11-24T02:25:12.661Z,44.34782608695652
2022-11-24T02:31:41.229Z,43.438127090301
2022-11-24T02:38:09.359Z,41.381270903010034
2022-11-24T02:44:37.401Z,45.98327759197324
2022-11-24T02:51:04.737Z,48.72909698996656
2022-11-24T02:57:32.861Z,48.7123745819398
2022-11-24T03:04:00.515Z,47.78929765886288
2022-11-24T03:10:37.624Z,46.214046822742475
2022-11-24T03:17:05.161Z,49.702341137123746
2022-11-24T03:24:48.560Z,54.78260869565217
2022-11-24T03:31:16.412Z,57.82274247491639
2022-11-24T03:37:43.945Z,56.98996655518395
2022-11-24T03:44:27.102Z,55.39799331103679
2022-11-24T03:50:54.944Z,54.62207357859532
2022-11-24T03:57:23.186Z,58.49832775919732
2022-11-24T04:03:52.930Z,66.47491638795987
2022-11-24T04:10:40.740Z,66.62207357859532
2022-11-24T04:17:09.227Z,67.59866220735786
2022-11-24T04:29:20.711Z,56.979933110367895
2022-11-24T04:41:38.901Z,60.15719063545151
2022-11-24T04:48:06.953Z,62.14046822742475
2022-11-24T04:54:35.458Z,58.69230769230769
2022-11-24T05:05:54.943Z,58.424749163879596
2022-11-24T05:12:45.744Z,64.16722408026756
2022-11-24T05:19:16.876Z,64.14715719063545
2022-11-24T05:25:47.786Z,57.1505016722408
2022-11-24T05:32:16.371Z,66.4448160535117
2022-11-24T05:40:17.354Z,84.14046822742475
